EDT,Max TemperatureF,Mean TemperatureF,Min TemperatureF,Max Dew PointF,MeanDew PointF,Min DewpointF,Max Humidity, Mean Humidity, Min Humidity, Max Sea Level PressureIn, Mean Sea Level PressureIn, Min Sea Level PressureIn, Max VisibilityMiles, Mean VisibilityMiles, Min VisibilityMiles, Max Wind SpeedMPH, Mean Wind SpeedMPH, Max Gust SpeedMPH,PrecipitationIn, CloudCover, Events, WindDirDegrees
2013-7-1,84,76,71,74,71,70,100,91,74,30.10,30.02,29.94,10,10,5,9,5,,0.03,7,Rain,168
2013-7-2,84,72,60,72,68,60,100,86,67,30.24,30.15,30.07,10,8,4,12,7,18,0.00,6,Rain,155
2013-7-3,89,74,60,73,67,60,100,83,57,30.23,30.19,30.16,10,7,2,12,4,24,0.00,4,,230
2013-7-4,91,81,71,73,72,70,97,74,52,30.23,30.17,30.11,10,10,9,13,6,20,0.00,1,,229
2013-7-5,93,83,73,74,72,70,91,71,49,30.18,30.12,30.06,10,10,10,12,7,20,0.00,0,,229
2013-7-6,91,82,71,73,70,64,94,69,46,30.10,30.05,30.00,10,10,9,15,4,22,0.00,2,,266
2013-7-7,91,78,66,76,69,63,96,77,52,30.05,30.00,29.92,10,10,9,9,2,,0.03,2,Rain,242
2013-7-8,84,75,66,74,70,64,100,84,65,30.09,29.99,29.93,10,10,3,15,5,18,0.00,5,Rain,41
2013-7-9,73,68,64,67,64,63,100,90,78,30.14,30.10,30.05,10,7,2,8,5,,0.00,8,,61
2013-7-10,87,75,66,74,69,63,100,90,65,30.09,29.95,29.80,10,5,2,13,6,22,0.02,7,Rain-Thunderstorm,139
2013-7-11,82,76,71,74,71,67,100,88,68,29.95,29.85,29.78,10,8,3,9,5,,0.04,4,Rain,236
2013-7-12,79,72,66,68,59,54,96,67,45,30.23,30.11,29.93,10,10,10,16,7,20,0.00,4,,38
2013-7-13,78,71,64,70,65,58,100,84,71,30.33,30.30,30.21,10,9,1,8,4,,0.01,6,Rain,70
2013-7-14,91,78,66,73,69,66,100,88,47,30.33,30.28,30.23,10,6,0,10,1,,0.00,5,Fog-Rain,269
2013-7-15,93,80,68,73,70,67,100,83,46,30.22,30.18,30.12,10,7,1,9,1,,0.01,1,,310
2013-7-16,95,78,64,70,67,64,97,68,38,30.19,30.16,30.13,10,10,10,13,3,18,0.00,1,,3
2013-7-17,93,80,66,74,69,64,100,69,37,30.20,30.12,30.01,10,10,6,9,3,,0.00,1,,224
2013-7-18,93,82,73,73,70,67,91,72,44,30.03,30.00,29.97,10,10,10,13,5,,0.00,1,Rain,296
2013-7-19,98,84,71,77,72,68,96,67,41,29.95,29.84,29.73,10,10,8,17,7,26,0.00,1,,231
2013-7-20,95,84,71,76,72,64,90,70,47,29.83,29.74,29.67,10,8,5,16,7,23,0.00,1,,246
2013-7-21,82,73,64,66,63,61,93,72,49,30.01,29.95,29.85,10,10,10,10,5,,0.00,2,,82
2013-7-22,82,72,62,68,65,62,100,88,54,30.04,29.99,29.91,10,6,0,12,2,20,0.01,4,Fog,68
2013-7-23,82,75,68,74,72,68,100,97,74,29.86,29.62,29.54,10,7,1,20,6,38,1.07,7,Rain-Thunderstorm,136
2013-7-24,86,75,64,72,68,51,100,86,51,29.99,29.66,29.57,10,6,0,14,2,21,0.01,5,Fog,292
2013-7-25,62,60,57,58,55,47,100,88,62,30.14,30.09,30.01,10,6,1,13,7,17,1.40,8,Rain,14
2013-7-26,71,65,59,67,62,59,100,93,78,30.09,30.00,29.94,10,9,3,14,7,20,0.20,7,Rain,324
2013-7-27,84,70,55,65,61,56,100,74,41,30.08,30.05,30.01,10,10,10,9,6,17,0.00,1,,214
2013-7-28,84,72,64,70,66,63,100,85,64,30.05,30.00,29.95,10,9,2,10,3,,0.00,7,Rain,55
2013-7-29,84,75,66,70,67,63,100,83,56,30.07,30.02,29.97,10,10,7,13,3,,0.06,5,Rain-Thunderstorm,201
2013-7-30,82,70,59,67,60,53,100,75,37,30.12,30.08,30.03,10,8,0,14,5,16,0.01,2,Fog,276
2013-7-31,81,68,57,62,58,53,93,68,39,30.17,30.11,30.06,10,10,10,9,2,,0.00,0,,331